Logo AVAMET
Benvolgut visitant, si us plau, ingressa Recuperar contrasenya
AVAMET paisatges

Elx Ferriol

Dades diàries. Acumulats / Últims 30 dies disponibles

Data Temperatura (°C) Humitat rel. (%) Pressió rel. (hPa) Vent (km/h) Precipitació
Mínima Mitjana Màxima Amplitud
tèrmica
Mínima Mitjana Màxima Mínima Mitjana Màxima Predom. Mitjana Ràfega
màxima
Total
(mm)
Índex-n
Mínima Mitjana Màxima Mínima Mitjana Màxima n
0 a 1
P0 max
mm 5'
Dades mensuals acumulades fins l'últim dia disponible
07/2020 19,7 20,5 21,9 26,0 29,7 31,6 34,9 15,2 28 66 96 1.010 1.016 1.022   28,0 0,0
Dades anuals acumulades fins l'últim dia disponible
2020 4,1 12,5 21,9 17,3 10,3 22,1 34,9 30,8 18 67 99 1.003 1.019 1.034   72,0 211,3
Últims 30 dies disponibles
06-07-2020 19,8     26,0     32,2 12,4 28 58 87 1.015 1.017 1.018 28,0 0,0
05-07-2020 19,7     25,2     30,7 11,0 40 62 84 1.018 1.020 1.021 26,0 0,0
04-07-2020 20,8     25,2     29,7 8,9 59 78 96 1.020 1.021 1.022 24,0 0,0
03-07-2020 20,8     25,4     30,1 9,3 55 75 95 1.014 1.017 1.020 26,0 0,0
02-07-2020 21,9     26,9     31,8 9,9 30 59 87 1.011 1.013 1.015 28,0 0,0
01-07-2020 19,7     27,3     34,9 15,2 40 64 88 1.010 1.012 1.013 24,0 0,0
30-06-2020 19,6     25,9     32,3 12,7 29 63 96 1.011 1.014 1.016 27,0 0,0
29-06-2020 18,9     25,5     32,1 13,2 27 59 90 1.014 1.016 1.018 21,0 0,0
28-06-2020 19,0     24,6     30,3 11,3 53 69 84 1.016 1.017 1.018 23,0 0,0
27-06-2020 18,6     25,1     31,5 12,9 45 71 97 1.014 1.015 1.016 24,0 0,0
26-06-2020 18,9     24,9     30,8 11,9 39 64 88 1.012 1.014 1.016 26,0 0,0
25-06-2020 20,1     26,4     32,7 12,6 25 54 83 1.013 1.016 1.018 28,0 0,0
24-06-2020 19,0     23,8     28,6 9,6 46 67 87 1.015 1.017 1.018 30,0 0,0
23-06-2020 18,4     23,6     28,7 10,3 41 60 79 1.016 1.018 1.020 23,0 0,0
22-06-2020 18,2     23,9     29,5 11,3 36 62 88 1.019 1.021 1.022 23,0 0,0
21-06-2020 18,6     23,9     29,3 10,7 45 64 82 1.019 1.021 1.022 22,0 0,0
20-06-2020 17,6     23,0     28,4 10,8 51 73 95 1.020 1.021 1.022 23,0 0,0
19-06-2020 19,6     23,4     27,3 7,7 57 74 91 1.016 1.019 1.021 29,0 0,0
18-06-2020 18,2     22,4     26,6 8,4 60 77 94 1.013 1.015 1.016 24,0 0,0
17-06-2020 16,9     21,6     26,3 9,4 55 76 96 1.013 1.015 1.016 35,0 0,0
16-06-2020 18,4     22,5     26,6 8,2 39 65 91 1.015 1.017 1.018 23,0 1,0
15-06-2020 18,3     23,8     29,2 10,9 31 56 81 1.018 1.019 1.020 35,0 0,0
14-06-2020 17,2     22,6     28,1 10,9 33 59 84 1.016 1.018 1.019 26,0 0,0
13-06-2020 17,6     23,1     28,7 11,1 26 43 60 1.009 1.013 1.017 35,0 0,0
12-06-2020 18,9     23,8     28,6 9,7 34 49 64 1.004 1.007 1.009 34,0 0,0
11-06-2020 15,8     22,7     29,6 13,8 35 66 97 1.003 1.008 1.013 34,0 0,0
10-06-2020 15,3     19,8     24,3 9,0 63 79 95 1.013 1.015 1.017 23,0 0,0
09-06-2020 15,1     19,6     24,1 9,0 46 71 96 1.015 1.016 1.017 23,0 3,3
08-06-2020 13,4     17,6     21,9 8,5 67 82 96 1.010 1.013 1.016 42,0 22,9
07-06-2020 21,2     25,0     28,8 7,6 33 54 74 1.005 1.008 1.010 32,0 0,0
Últims 13 mesos disponibles
06/2020 13,4 17,8 21,2 23,3 21,9 28,7 32,7 19,3 43 64 82 1.007 1.014 1.021 51,0 27,2
05/2020 12,2 16,0 19,7 21,2 20,2 26,3 31,9 19,7 47 62 81 1.007 1.017 1.026 43,0 13,8
04/2020 8,2 11,7 15,6 16,0 16,4 20,3 26,7 18,5 51 72 88 1.007 1.015 1.025 46,0 49,9
03/2020 7,6 10,3 15,8 14,7 10,3 19,0 26,3 18,7 44 67 89 1.009 1.017 1.024 60,0 69,5
02/2020 5,7 10,0 14,2 15,2 14,4 20,3 26,4 20,7 36 67 86 1.015 1.025 1.032 45,0 3,4
01/2020 4,1 7,4 13,8 11,8 12,7 16,1 22,2 18,1 52 72 89 1.014 1.024 1.032 72,0 47,5
12/2019 5,8 10,2 16,1 14,1 13,3 18,0 24,0 18,2 41 68 87 1.006 1.019 1.032 57,0 36,2
11/2019 5,1 11,2 19,1 15,0 13,3 18,9 26,9 21,8 48 61 92 1.001 1.011 1.018 55,0 18,3
10/2019 10,7 15,7 18,7 20,3 15,4 24,9 33,4 22,7 48 69 91 1.009 1.017 1.022 46,0 26,2
09/2019 14,9 19,4 22,6 23,5 21,1 27,7 32,2 17,3 56 74 84 1.011 1.017 1.021 E 0,3 49,0 129,1
08/2019 19,1 21,7 25,9 26,8 27,7 31,9 39,4 20,3 43 66 77 1.011 1.016 1.019 38,0 36,6
07/2019 19,5 21,9 25,4 27,2 28,8 32,6 36,9 17,4 35 58 74 1.006 1.014 1.020 40,0 0,0
06/2019 13,7 17,7 22,6 23,2 23,4 28,7 35,8 22,1 41 59 76 1.010 1.015 1.022 SSE 0,2 45,0 0,3
Tots els anys disponibles
2019 2,2 14,0 25,9 18,7 12,7 23,5 39,4 37,2 33 63 92 999 1.017 1.032 SSE 0,0 63,0 415,4
2018 2,7 14,4 26,0 19,1 9,4 23,7 36,6 33,9 37 64 90 994 1.015 1.033 65,0 230,4
Temperatura (°C)
Humitat relativa (%)
Velocitat del vent i ràfega màxima (km/h)
Direcció del vent (°)
Pressió (hPa)
Precipitació (mm)
Nota sobre les dades: s'avisa a l'usuari de la provisionalitat i no oficialitat d'aquestes dades
Logo AVAMET blanc
Web allotjada a Sollutia
Llicència de Creative CommonsLa web d'AVAMET i els seus continguts estan subjectes a una llicència de
Reconeixement - No Comercial - Compartir igual
Últimes estacions: Quesa - Hotel La Rocha (Soci), Agres - Les Eres (Soci), la Vilavella - Ptda Forns (Soci), Miramar - Platja (Inforatge), San Fulgencio - Centre & San Fulgencio - Urb. La Marina (MeteOrihuela), Ontinyent - els Gínjols (Soci), Orba (Ajuntament Soci), Xixona - Monnegre de Baix (Soci) - - -